Richardton, North Dakota
Current Conditions -  °F | °C
As of 11:55 AM on Saturday 25 Oct 2014 (Local Time) from KD57 Reporting Station
Clear Clear  
Wind Chill: 15°   Ceiling: Unl
Heat Index: 15°   Visibility: 10mi
Dew Point:   Wind: 7mph
Humidity: 36%   Direction: 150°SSE
Pressure: 30.12"   Gusts: NA
Location:  46.88°N, 102.32°W
Report Text: KD57 251755Z AUTO 15006KT 10SM CLR 15/M00 A3012 RMK AO2 TSNO
Loading
Personal Weather Stations






























Interactive Weather Map
Tropical Storm Tracking
New forecast layout! Learn more

10-Day Weather Forecast

Advertisements
Track Severe Weather on mobile